createdAt,value
2019-05-12T00:01:48.802Z,71.20
2019-05-12T00:04:18.993Z,71.30
2019-05-12T00:06:48.926Z,72.10
2019-05-12T00:09:18.906Z,72.20
2019-05-12T00:11:48.740Z,72.50
2019-05-12T00:14:18.419Z,73.50
2019-05-12T00:16:49.143Z,74.00
2019-05-12T00:19:19.096Z,74.80
2019-05-12T00:21:48.796Z,75.30
2019-05-12T00:24:18.781Z,76.00
2019-05-12T00:26:50.373Z,77.00
2019-05-12T00:29:20.065Z,77.50
2019-05-12T00:31:49.834Z,78.50
2019-05-12T00:34:19.514Z,79.10
2019-05-12T00:36:49.352Z,80.00
2019-05-12T00:39:19.330Z,80.80
2019-05-12T00:41:49.180Z,81.70
2019-05-12T00:44:18.916Z,82.70
2019-05-12T00:46:48.909Z,83.30
2019-05-12T00:49:18.864Z,84.40
2019-05-12T00:51:48.692Z,85.50
2019-05-12T00:54:18.446Z,86.10
2019-05-12T00:56:48.404Z,87.20
2019-05-12T00:59:19.031Z,88.00
2019-05-12T01:01:50.154Z,88.70
2019-05-12T01:04:21.049Z,89.60
2019-05-12T01:06:51.918Z,90.20
2019-05-12T01:09:23.819Z,90.60
2019-05-12T01:11:53.532Z,91.10
2019-05-12T01:14:24.296Z,91.40
2019-05-12T01:16:53.998Z,92.20
2019-05-12T01:19:24.767Z,92.20
2019-05-12T01:21:54.436Z,92.50
2019-05-12T01:24:24.455Z,92.70
2019-05-12T01:26:54.208Z,93.20
2019-05-12T01:29:23.948Z,93.40
2019-05-12T01:32:02.960Z,93.60
2019-05-12T01:34:32.686Z,93.80
2019-05-12T01:37:24.655Z,94.20
2019-05-12T01:39:55.068Z,94.30
2019-05-12T01:42:24.897Z,94.60
2019-05-12T01:44:54.587Z,95.00
2019-05-12T01:47:24.267Z,94.80
2019-05-12T01:49:54.571Z,95.00
2019-05-12T01:52:24.308Z,95.00
2019-05-12T01:54:54.026Z,95.30
2019-05-12T01:57:23.800Z,95.60
2019-05-12T01:59:53.541Z,95.70
2019-05-12T02:02:23.252Z,96.00
2019-05-12T02:05:09.419Z,96.10
2019-05-12T02:08:04.501Z,96.30
2019-05-12T02:10:34.231Z,96.20
2019-05-12T02:13:04.026Z,96.30
2019-05-12T02:15:33.713Z,96.40
2019-05-12T02:18:03.527Z,96.70
2019-05-12T02:20:33.271Z,97.10
2019-05-12T02:23:02.964Z,97.10
2019-05-12T02:25:32.674Z,97.40
2019-05-12T02:28:02.442Z,97.60
2019-05-12T02:30:32.223Z,97.90
2019-05-12T02:33:04.934Z,98.30
2019-05-12T02:35:35.456Z,98.60
2019-05-12T02:38:05.259Z,98.90
2019-05-12T02:40:35.395Z,98.80
2019-05-12T02:43:06.440Z,99.10
2019-05-12T02:45:36.327Z,99.50
2019-05-12T02:48:06.082Z,99.70
2019-05-12T02:50:37.961Z,99.90
2019-05-12T02:53:08.420Z,99.90
2019-05-12T02:55:38.986Z,99.90
2019-05-12T02:58:10.996Z,99.90
2019-05-12T03:00:40.873Z,99.90
2019-05-12T03:03:14.761Z,99.90
2019-05-12T03:05:45.994Z,99.90
2019-05-12T03:08:16.794Z,99.90
2019-05-12T03:10:48.488Z,99.90
2019-05-12T03:13:18.350Z,99.90
2019-05-12T03:15:48.103Z,99.90
2019-05-12T03:18:17.885Z,99.90
2019-05-12T03:20:47.581Z,99.90
2019-05-12T03:23:19.299Z,99.90
2019-05-12T03:25:48.902Z,99.90
2019-05-12T03:28:18.678Z,99.90
2019-05-12T03:30:49.399Z,99.90
2019-05-12T03:33:20.469Z,99.90
2019-05-12T03:35:54.935Z,99.90
2019-05-12T03:38:25.092Z,99.90
2019-05-12T03:40:55.110Z,99.90
2019-05-12T03:43:24.906Z,99.90
2019-05-12T03:45:55.856Z,99.90
2019-05-12T03:48:25.919Z,99.90
2019-05-12T03:50:55.649Z,99.90
2019-05-12T03:53:25.446Z,99.90
2019-05-12T03:55:55.446Z,99.90
2019-05-12T03:58:25.776Z,99.90
2019-05-12T04:00:55.817Z,99.90
2019-05-12T04:03:25.524Z,99.90
2019-05-12T04:05:55.562Z,99.90
2019-05-12T04:08:25.411Z,99.90
2019-05-12T04:10:55.155Z,99.90
2019-05-12T04:13:26.598Z,99.90
2019-05-12T04:15:56.298Z,99.90
2019-05-12T04:18:25.977Z,99.90
2019-05-12T04:20:55.744Z,99.90
2019-05-12T04:23:25.506Z,99.90
2019-05-12T04:26:07.424Z,99.90
2019-05-12T04:28:26.852Z,99.90
2019-05-12T04:30:56.561Z,99.90
2019-05-12T04:33:26.254Z,99.90
2019-05-12T04:35:56.061Z,99.90
2019-05-12T04:38:25.733Z,99.90
2019-05-12T04:40:55.761Z,99.90
2019-05-12T04:43:25.734Z,99.90
2019-05-12T04:45:55.482Z,99.90
2019-05-12T04:48:25.945Z,99.90
2019-05-12T04:50:55.960Z,99.90
2019-05-12T04:53:25.703Z,99.90
2019-05-12T04:56:07.573Z,99.90
2019-05-12T04:58:27.946Z,99.90
2019-05-12T05:00:57.715Z,99.90
2019-05-12T05:03:27.498Z,99.90
2019-05-12T05:05:57.233Z,99.90
2019-05-12T05:08:26.968Z,99.90
2019-05-12T05:10:56.794Z,99.60
2019-05-12T05:13:26.516Z,99.20
2019-05-12T05:15:56.228Z,98.40
2019-05-12T05:18:26.008Z,98.40
2019-05-12T05:20:55.769Z,98.40
2019-05-12T05:23:25.480Z,98.40
2019-05-12T05:25:55.191Z,98.70
2019-05-12T05:28:24.958Z,99.10
2019-05-12T05:30:54.633Z,98.90
2019-05-12T05:33:24.417Z,98.50
2019-05-12T05:35:55.904Z,98.50
2019-05-12T05:38:25.682Z,98.60
2019-05-12T05:40:59.774Z,98.60
2019-05-12T05:43:26.804Z,98.70
2019-05-12T05:46:02.494Z,98.80
2019-05-12T05:48:27.879Z,98.80
2019-05-12T05:51:05.652Z,98.70
2019-05-12T05:53:33.529Z,98.70
2019-05-12T05:56:04.060Z,98.90
2019-05-12T05:58:34.090Z,99.10
2019-05-12T06:01:07.995Z,99.10
2019-05-12T06:03:35.444Z,99.00
2019-05-12T06:06:10.793Z,99.00
2019-05-12T06:08:36.644Z,99.10
2019-05-12T06:11:08.596Z,98.90
2019-05-12T06:13:40.197Z,98.60
2019-05-12T06:16:11.638Z,98.20
2019-05-12T06:18:43.744Z,98.10
2019-05-12T06:21:13.768Z,98.20
2019-05-12T06:23:43.623Z,97.50
2019-05-12T06:26:14.171Z,97.00
2019-05-12T06:28:44.180Z,96.60
2019-05-12T06:31:18.994Z,96.50
2019-05-12T06:33:45.764Z,95.90
2019-05-12T06:36:22.304Z,94.70
2019-05-12T06:38:46.878Z,92.70
2019-05-12T06:41:20.771Z,91.10
2019-05-12T06:43:48.006Z,90.60
2019-05-12T06:46:21.059Z,89.30
2019-05-12T06:48:49.180Z,86.00
2019-05-12T06:51:23.074Z,84.70
2019-05-12T06:53:50.391Z,80.70
2019-05-12T06:56:20.108Z,80.40
2019-05-12T06:58:49.953Z,77.50
2019-05-12T07:01:19.917Z,79.70
2019-05-12T07:03:49.674Z,79.20
2019-05-12T07:06:20.007Z,79.00
2019-05-12T07:09:02.593Z,78.00
2019-05-12T07:11:24.018Z,78.10
2019-05-12T07:14:03.974Z,76.40
2019-05-12T07:16:30.158Z,76.90
2019-05-12T07:18:55.860Z,76.40
2019-05-12T07:21:27.275Z,75.80
2019-05-12T07:24:00.443Z,72.00
2019-05-12T07:26:28.636Z,71.00
2019-05-12T07:28:58.510Z,68.30
2019-05-12T07:31:28.272Z,65.90
2019-05-12T07:33:58.498Z,64.40
2019-05-12T07:36:29.574Z,64.20
2019-05-12T07:39:04.146Z,63.90
2019-05-12T07:41:34.224Z,62.90
2019-05-12T07:44:05.223Z,62.50
2019-05-12T07:46:39.764Z,61.30
2019-05-12T07:49:06.862Z,61.40
2019-05-12T07:51:40.540Z,61.20
2019-05-12T07:54:08.049Z,60.70
2019-05-12T07:56:40.863Z,59.40
2019-05-12T07:59:09.663Z,59.10
2019-05-12T08:01:52.585Z,61.10
2019-05-12T08:04:23.955Z,60.20
2019-05-12T08:06:55.848Z,60.70
2019-05-12T08:09:32.245Z,60.10
2019-05-12T08:11:57.169Z,59.20
2019-05-12T08:14:29.378Z,59.10
2019-05-12T08:17:02.069Z,57.40
2019-05-12T08:19:30.010Z,57.10
2019-05-12T08:21:59.824Z,55.90
2019-05-12T08:24:29.737Z,56.20
2019-05-12T08:27:05.703Z,56.50
2019-05-12T08:29:31.625Z,56.90
2019-05-12T08:32:03.767Z,55.80
2019-05-12T08:34:34.132Z,55.50
2019-05-12T08:37:04.468Z,56.00
2019-05-12T08:39:34.394Z,56.40
2019-05-12T08:42:04.301Z,55.60
2019-05-12T08:44:40.427Z,54.00
2019-05-12T08:47:05.556Z,52.10
2019-05-12T08:49:50.244Z,52.80
2019-05-12T08:52:06.753Z,52.40
2019-05-12T08:54:39.651Z,51.30
2019-05-12T08:57:08.236Z,51.70
2019-05-12T08:59:38.009Z,52.60
2019-05-12T09:02:10.783Z,52.80
2019-05-12T09:04:43.092Z,53.00
2019-05-12T09:07:13.914Z,54.10
2019-05-12T09:09:44.005Z,54.90
2019-05-12T09:12:14.151Z,55.80
2019-05-12T09:14:47.113Z,56.30
2019-05-12T09:17:16.917Z,56.50
2019-05-12T09:19:46.703Z,56.70
2019-05-12T09:22:20.725Z,56.40
2019-05-12T09:24:48.010Z,54.50
2019-05-12T09:27:17.851Z,53.20
2019-05-12T09:29:47.718Z,54.00
2019-05-12T09:32:17.505Z,52.70
2019-05-12T09:34:52.915Z,49.50
2019-05-12T09:37:18.938Z,48.10
2019-05-12T09:39:51.265Z,47.00
2019-05-12T09:42:25.567Z,47.00
2019-05-12T09:44:53.861Z,50.10
2019-05-12T09:47:27.546Z,52.50
2019-05-12T09:49:54.493Z,52.50
2019-05-12T09:52:27.106Z,52.60
2019-05-12T09:54:56.800Z,52.80
2019-05-12T09:57:26.578Z,52.10
2019-05-12T09:59:59.455Z,52.00
2019-05-12T10:02:28.025Z,52.60
2019-05-12T10:05:00.730Z,51.90
2019-05-12T10:07:29.473Z,52.30
2019-05-12T10:09:59.284Z,52.00
2019-05-12T10:12:29.968Z,50.70
2019-05-12T10:15:00.123Z,47.90
2019-05-12T10:17:30.296Z,47.90
2019-05-12T10:20:00.184Z,48.40
2019-05-12T10:22:40.079Z,49.60
2019-05-12T10:25:10.110Z,50.50
2019-05-12T10:27:39.948Z,49.50
2019-05-12T10:30:15.573Z,49.20
2019-05-12T10:32:43.629Z,46.90
2019-05-12T10:35:21.515Z,45.90
2019-05-12T10:37:48.155Z,48.20
2019-05-12T10:40:18.565Z,45.70
2019-05-12T10:42:49.625Z,42.20
2019-05-12T10:45:23.519Z,40.60
2019-05-12T10:47:53.502Z,39.10
2019-05-12T10:50:23.537Z,38.20
2019-05-12T10:52:53.682Z,36.80
2019-05-12T10:55:23.957Z,37.70
2019-05-12T10:58:01.461Z,38.10
2019-05-12T11:00:26.916Z,38.80
2019-05-12T11:03:01.525Z,41.80
2019-05-12T11:05:28.427Z,40.60
2019-05-12T11:08:00.349Z,41.20
2019-05-12T11:10:29.671Z,43.20
2019-05-12T11:13:05.935Z,44.60
2019-05-12T11:15:30.853Z,46.00
2019-05-12T11:18:09.741Z,45.20
2019-05-12T11:20:39.446Z,42.70
2019-05-12T11:23:09.238Z,40.50
2019-05-12T11:25:39.163Z,39.10
2019-05-12T11:28:09.203Z,35.80
2019-05-12T11:30:39.114Z,36.30
2019-05-12T11:33:08.972Z,35.90
2019-05-12T11:35:38.704Z,35.80
2019-05-12T11:38:08.476Z,36.00
2019-05-12T11:40:38.230Z,36.70
2019-05-12T11:43:08.002Z,37.60
2019-05-12T11:45:38.120Z,38.60
2019-05-12T11:48:10.080Z,39.60
2019-05-12T11:50:40.537Z,40.10
2019-05-12T11:53:13.566Z,40.60
2019-05-12T11:55:43.802Z,41.00
2019-05-12T11:58:13.877Z,41.00
2019-05-12T12:00:47.627Z,39.20
2019-05-12T12:03:18.322Z,36.50
2019-05-12T12:05:49.501Z,36.00
2019-05-12T12:08:19.228Z,35.70
2019-05-12T12:10:49.409Z,36.00
2019-05-12T12:13:24.734Z,35.90
2019-05-12T12:15:50.905Z,36.20
2019-05-12T12:18:20.776Z,35.10
2019-05-12T12:20:55.130Z,34.70
2019-05-12T12:23:21.977Z,35.40
2019-05-12T12:25:53.424Z,35.50
2019-05-12T12:28:26.138Z,35.20
2019-05-12T12:31:00.322Z,35.30
2019-05-12T12:33:31.120Z,35.60
2019-05-12T12:36:00.765Z,34.40
2019-05-12T12:38:30.374Z,35.30
2019-05-12T12:41:00.086Z,35.70
2019-05-12T12:43:29.780Z,35.80
2019-05-12T12:46:04.613Z,35.30
2019-05-12T12:48:34.397Z,34.60
2019-05-12T12:51:04.291Z,34.50
2019-05-12T12:53:34.474Z,34.60
2019-05-12T12:56:04.571Z,34.20
2019-05-12T12:58:34.710Z,33.70
2019-05-12T13:01:05.815Z,32.50
2019-05-12T13:03:35.662Z,32.40
2019-05-12T13:06:05.447Z,31.70
2019-05-12T13:08:35.176Z,31.70
2019-05-12T13:11:06.356Z,31.80
2019-05-12T13:13:36.069Z,32.00
2019-05-12T13:16:05.918Z,31.80
2019-05-12T13:18:36.355Z,32.10
2019-05-12T13:21:07.536Z,31.80
2019-05-12T13:23:40.957Z,30.80
2019-05-12T13:26:09.040Z,31.70
2019-05-12T13:28:38.851Z,31.40
2019-05-12T13:31:13.030Z,31.50
2019-05-12T13:33:40.140Z,31.60
2019-05-12T13:36:10.044Z,32.30
2019-05-12T13:38:40.614Z,32.20
2019-05-12T13:41:15.891Z,32.90
2019-05-12T13:43:42.144Z,33.10
2019-05-12T13:46:11.880Z,32.90
2019-05-12T13:48:43.343Z,33.40
2019-05-12T13:51:15.740Z,33.60
2019-05-12T13:53:46.360Z,32.80
2019-05-12T13:56:19.306Z,32.70
2019-05-12T13:58:47.445Z,33.20
2019-05-12T14:01:20.550Z,33.80
2019-05-12T14:03:50.687Z,33.80
2019-05-12T14:06:23.218Z,33.50
2019-05-12T14:08:53.644Z,31.80
2019-05-12T14:11:23.875Z,31.70
2019-05-12T14:13:53.773Z,31.80
2019-05-12T14:16:23.999Z,31.80
2019-05-12T14:18:57.184Z,32.60
2019-05-12T14:21:25.663Z,32.90
2019-05-12T14:23:55.405Z,32.80
2019-05-12T14:26:25.229Z,33.50
2019-05-12T14:28:54.981Z,33.30
2019-05-12T14:31:30.310Z,33.60
2019-05-12T14:33:56.286Z,33.90
2019-05-12T14:36:26.891Z,33.80
2019-05-12T14:39:00.335Z,33.70
2019-05-12T14:41:29.203Z,33.80
2019-05-12T14:44:03.443Z,33.80
2019-05-12T14:46:30.290Z,34.30
2019-05-12T14:48:59.986Z,34.80
2019-05-12T14:51:30.812Z,33.80
2019-05-12T14:54:00.500Z,34.30
2019-05-12T14:56:30.251Z,34.20
2019-05-12T14:59:00.843Z,34.70
2019-05-12T15:01:48.482Z,34.20
2019-05-12T15:04:02.225Z,34.20
2019-05-12T15:06:34.009Z,34.40
2019-05-12T15:09:05.940Z,33.50
2019-05-12T15:11:35.826Z,33.60
2019-05-12T15:14:05.863Z,34.00
2019-05-12T15:16:40.406Z,34.00
2019-05-12T15:19:09.756Z,33.40
2019-05-12T15:21:38.915Z,33.30
2019-05-12T15:24:09.296Z,33.10
2019-05-12T15:26:40.143Z,33.00
2019-05-12T15:29:13.411Z,33.40
2019-05-12T15:31:52.742Z,33.20
2019-05-12T15:34:14.215Z,33.40
2019-05-12T15:36:52.146Z,32.70
2019-05-12T15:39:15.795Z,32.80
2019-05-12T15:41:45.617Z,33.20
2019-05-12T15:44:15.418Z,33.50
2019-05-12T15:46:46.689Z,33.40
2019-05-12T15:49:16.593Z,33.20
2019-05-12T15:51:54.241Z,33.40
2019-05-12T15:54:17.813Z,33.60
2019-05-12T15:56:47.567Z,33.20
2019-05-12T15:59:19.171Z,33.00
2019-05-12T16:02:16.680Z,32.60
2019-05-12T16:04:48.575Z,32.00
2019-05-12T16:07:17.532Z,32.50
2019-05-12T16:09:47.577Z,32.80
2019-05-12T16:12:23.372Z,33.20
2019-05-12T16:14:49.901Z,33.90
2019-05-12T16:17:24.977Z,34.10
2019-05-12T16:19:51.173Z,34.60
2019-05-12T16:22:23.102Z,34.80
2019-05-12T16:24:53.212Z,34.70
2019-05-12T16:27:24.929Z,34.70
2019-05-12T16:29:54.583Z,34.80
2019-05-12T16:32:27.314Z,35.10
2019-05-12T16:34:55.857Z,35.10
2019-05-12T16:37:31.274Z,34.80
2019-05-12T16:39:57.104Z,35.10
2019-05-12T16:42:26.830Z,35.20
2019-05-12T16:45:06.024Z,35.50
2019-05-12T16:47:29.353Z,35.30
2019-05-12T16:49:59.445Z,34.50
2019-05-12T16:52:34.670Z,33.70
2019-05-12T16:55:00.694Z,33.20
2019-05-12T16:57:30.411Z,33.00
2019-05-12T17:00:07.051Z,32.70
2019-05-12T17:02:41.920Z,32.80
2019-05-12T17:05:15.632Z,33.20
2019-05-12T17:07:40.974Z,33.50
2019-05-12T17:10:11.887Z,33.50
2019-05-12T17:12:43.710Z,33.70
2019-05-12T17:15:14.922Z,33.80
2019-05-12T17:17:45.143Z,34.00
2019-05-12T17:20:16.133Z,34.30
2019-05-12T17:22:54.733Z,34.30
2019-05-12T17:25:17.589Z,34.40
2019-05-12T17:27:47.440Z,34.80
2019-05-12T17:30:18.552Z,35.10
2019-05-12T17:32:58.000Z,35.60
2019-05-12T17:35:20.392Z,35.60
2019-05-12T17:37:53.397Z,36.10
2019-05-12T17:40:24.323Z,36.30
2019-05-12T17:42:57.612Z,36.40
2019-05-12T17:45:25.899Z,36.80
2019-05-12T17:48:02.875Z,37.20
2019-05-12T17:50:27.192Z,38.10
2019-05-12T17:53:00.188Z,38.60
2019-05-12T17:55:28.384Z,39.30
2019-05-12T17:57:58.152Z,39.90
2019-05-12T18:00:28.097Z,40.60
2019-05-12T18:03:14.457Z,41.20
2019-05-12T18:05:29.328Z,41.80
2019-05-12T18:07:59.080Z,42.10
2019-05-12T18:10:32.488Z,42.50
2019-05-12T18:13:00.202Z,43.10
2019-05-12T18:15:33.337Z,43.50
2019-05-12T18:18:04.032Z,44.20
2019-05-12T18:20:40.004Z,43.30
2019-05-12T18:23:05.168Z,42.80
2019-05-12T18:25:36.840Z,42.60
2019-05-12T18:28:06.757Z,42.20
2019-05-12T18:30:37.195Z,41.60
2019-05-12T18:33:09.417Z,41.20
2019-05-12T18:35:38.541Z,41.20
2019-05-12T18:38:18.339Z,41.40
2019-05-12T18:40:39.720Z,41.60
2019-05-12T18:43:10.050Z,41.90
2019-05-12T18:45:39.866Z,42.30
2019-05-12T18:48:17.866Z,42.50
2019-05-12T18:50:44.051Z,42.80
2019-05-12T18:53:14.446Z,42.80
2019-05-12T18:55:44.713Z,42.70
2019-05-12T18:58:14.962Z,42.80
2019-05-12T19:00:45.086Z,43.10
2019-05-12T19:03:14.978Z,43.60
2019-05-12T19:05:44.817Z,43.70
2019-05-12T19:08:14.816Z,44.00
2019-05-12T19:10:48.676Z,44.30
2019-05-12T19:13:16.162Z,44.60
2019-05-12T19:15:46.104Z,44.90
2019-05-12T19:18:18.299Z,44.80
2019-05-12T19:20:48.182Z,44.90
2019-05-12T19:23:18.176Z,45.10
2019-05-12T19:25:48.490Z,44.80
2019-05-12T19:28:18.182Z,44.50
2019-05-12T19:30:50.199Z,44.60
2019-05-12T19:33:19.426Z,44.50
2019-05-12T19:35:50.464Z,44.40
2019-05-12T19:38:20.691Z,44.30
2019-05-12T19:40:56.349Z,44.40
2019-05-12T19:43:23.746Z,44.50
2019-05-12T19:46:03.183Z,44.20
2019-05-12T19:48:27.631Z,44.20
2019-05-12T19:50:57.756Z,44.40
2019-05-12T19:53:27.479Z,44.30
2019-05-12T19:55:57.273Z,44.60
2019-05-12T19:58:27.058Z,44.50
2019-05-12T20:00:56.857Z,44.50
2019-05-12T20:03:26.609Z,44.30
2019-05-12T20:05:56.359Z,44.10
2019-05-12T20:08:26.131Z,44.10
2019-05-12T20:10:55.999Z,43.90
2019-05-12T20:13:29.550Z,44.20
2019-05-12T20:15:57.124Z,44.10
2019-05-12T20:18:26.928Z,44.30
2019-05-12T20:20:56.769Z,44.20
2019-05-12T20:23:26.473Z,44.20
2019-05-12T20:25:56.231Z,44.30
2019-05-12T20:28:26.015Z,44.10
2019-05-12T20:31:01.043Z,44.20
2019-05-12T20:33:27.185Z,44.40
2019-05-12T20:35:56.987Z,44.40
2019-05-12T20:38:34.141Z,44.60
2019-05-12T20:40:58.427Z,44.80
2019-05-12T20:43:32.427Z,44.50
2019-05-12T20:45:59.628Z,44.60
2019-05-12T20:48:31.193Z,44.60
2019-05-12T20:51:03.345Z,44.70
2019-05-12T20:53:36.311Z,44.80
2019-05-12T20:56:04.227Z,44.80
2019-05-12T20:58:40.923Z,44.90
2019-05-12T21:01:05.520Z,45.00
2019-05-12T21:03:39.858Z,45.60
2019-05-12T21:06:06.739Z,45.50
2019-05-12T21:08:36.437Z,45.60
2019-05-12T21:11:06.219Z,46.30
2019-05-12T21:13:35.961Z,45.80
2019-05-12T21:16:16.302Z,46.00
2019-05-12T21:18:48.009Z,46.20
2019-05-12T21:21:11.287Z,46.50
2019-05-12T21:23:45.671Z,46.40
2019-05-12T21:26:12.587Z,46.50
2019-05-12T21:28:46.279Z,46.50
2019-05-12T21:31:14.529Z,46.70
2019-05-12T21:33:44.239Z,46.80
2019-05-12T21:36:15.477Z,47.20
2019-05-12T21:38:45.293Z,47.30
2019-05-12T21:41:15.573Z,47.30
2019-05-12T21:43:45.474Z,47.50
2019-05-12T21:46:15.681Z,47.60
2019-05-12T21:48:48.449Z,47.90
2019-05-12T21:51:19.931Z,48.20
2019-05-12T21:53:50.579Z,48.30
2019-05-12T21:56:21.089Z,48.40
2019-05-12T21:58:53.922Z,48.50
2019-05-12T22:01:23.878Z,48.80
2019-05-12T22:03:58.842Z,49.10
2019-05-12T22:06:25.271Z,49.30
2019-05-12T22:09:02.620Z,49.50
2019-05-12T22:11:34.584Z,49.60
2019-05-12T22:14:05.063Z,49.80
2019-05-12T22:16:43.513Z,50.00
2019-05-12T22:19:09.222Z,50.20
2019-05-12T22:21:47.599Z,50.50
2019-05-12T22:24:10.629Z,50.60
2019-05-12T22:26:47.806Z,50.80
2019-05-12T22:29:21.275Z,50.90
2019-05-12T22:31:50.596Z,51.20
2019-05-12T22:34:20.349Z,51.40
2019-05-12T22:36:55.371Z,51.50
2019-05-12T22:39:21.579Z,51.80
2019-05-12T22:41:51.381Z,51.90
2019-05-12T22:44:24.548Z,52.00
2019-05-12T22:46:54.053Z,52.20
2019-05-12T22:49:25.056Z,52.60
2019-05-12T22:52:02.682Z,52.90
2019-05-12T22:54:26.147Z,53.10
2019-05-12T22:56:57.055Z,53.30
2019-05-12T22:59:32.076Z,53.50
2019-05-12T23:01:58.237Z,54.60
2019-05-12T23:04:35.542Z,54.60
2019-05-12T23:06:59.379Z,54.20
2019-05-12T23:09:30.146Z,54.50
2019-05-12T23:11:59.947Z,54.80
2019-05-12T23:14:29.661Z,54.80
2019-05-12T23:16:59.937Z,54.60
2019-05-12T23:19:30.738Z,53.50
2019-05-12T23:22:00.424Z,53.50
2019-05-12T23:24:35.383Z,53.90
2019-05-12T23:27:01.545Z,53.90
2019-05-12T23:29:33.731Z,53.90
2019-05-12T23:32:07.354Z,53.80
2019-05-12T23:34:34.278Z,53.30
2019-05-12T23:37:04.100Z,52.50
2019-05-12T23:39:37.993Z,51.90
2019-05-12T23:42:05.365Z,51.80
2019-05-12T23:44:36.691Z,50.80
2019-05-12T23:47:06.401Z,50.60
2019-05-12T23:49:36.236Z,51.50
2019-05-12T23:52:06.328Z,51.70
2019-05-12T23:54:36.061Z,51.80
2019-05-12T23:57:05.784Z,52.10
2019-05-12T23:59:35.481Z,52.30
